createdAt,value
2017-12-15T00:01:43.170Z,2.70
2017-12-15T00:04:10.633Z,2.60
2017-12-15T00:06:38.091Z,2.60
2017-12-15T00:09:05.537Z,2.70
2017-12-15T00:11:32.977Z,2.60
2017-12-15T00:14:00.427Z,2.60
2017-12-15T00:16:28.648Z,2.60
2017-12-15T00:18:56.096Z,2.60
2017-12-15T00:21:23.544Z,2.50
2017-12-15T00:23:51.009Z,2.50
2017-12-15T00:26:18.447Z,2.50
2017-12-15T00:28:45.900Z,2.40
2017-12-15T00:31:13.353Z,2.30
2017-12-15T00:33:40.801Z,2.30
2017-12-15T00:36:08.240Z,2.20
2017-12-15T00:38:35.715Z,2.20
2017-12-15T00:41:03.181Z,2.10
2017-12-15T00:43:30.610Z,2.00
2017-12-15T00:45:58.831Z,2.00
2017-12-15T00:48:26.289Z,2.00
2017-12-15T00:50:53.749Z,2.00
2017-12-15T00:53:21.202Z,1.90
2017-12-15T00:55:48.654Z,1.90
2017-12-15T00:58:16.103Z,1.90
2017-12-15T01:00:43.560Z,1.90
2017-12-15T01:03:11.767Z,1.90
2017-12-15T01:05:39.215Z,1.90
2017-12-15T01:08:06.681Z,1.90
2017-12-15T01:10:34.232Z,2.00
2017-12-15T01:13:01.682Z,1.90
2017-12-15T01:15:29.897Z,1.90
2017-12-15T01:17:57.356Z,1.80
2017-12-15T01:20:24.804Z,1.80
2017-12-15T01:22:52.276Z,1.80
2017-12-15T01:25:19.719Z,1.80
2017-12-15T01:27:47.936Z,1.90
2017-12-15T01:30:15.389Z,1.90
2017-12-15T01:32:42.872Z,1.90
2017-12-15T01:35:10.329Z,1.90
2017-12-15T01:37:37.792Z,1.90
2017-12-15T01:40:05.257Z,1.90
2017-12-15T01:42:32.726Z,1.90
2017-12-15T01:45:00.162Z,1.90
2017-12-15T01:47:27.626Z,2.00
2017-12-15T01:49:55.095Z,1.90
2017-12-15T01:52:22.550Z,1.90
2017-12-15T01:54:50.001Z,1.90
2017-12-15T01:57:17.444Z,1.90
2017-12-15T01:59:45.675Z,2.00
2017-12-15T02:02:13.129Z,1.90
2017-12-15T02:04:40.604Z,1.90
2017-12-15T02:07:08.048Z,1.90
2017-12-15T02:09:35.520Z,1.90
2017-12-15T02:12:03.735Z,2.00
2017-12-15T02:14:31.193Z,1.90
2017-12-15T02:16:58.652Z,1.90
2017-12-15T02:19:26.095Z,1.90
2017-12-15T02:21:53.571Z,1.90
2017-12-15T02:24:21.027Z,1.90
2017-12-15T02:26:48.479Z,1.90
2017-12-15T02:29:15.938Z,1.90
2017-12-15T02:31:43.410Z,1.90
2017-12-15T02:34:11.604Z,1.80
2017-12-15T02:36:39.062Z,1.80
2017-12-15T02:39:06.529Z,1.90
2017-12-15T02:41:33.982Z,1.90
2017-12-15T02:44:01.435Z,1.90
2017-12-15T02:46:28.896Z,1.90
2017-12-15T02:48:56.366Z,1.90
2017-12-15T02:51:23.833Z,1.90
2017-12-15T02:53:51.311Z,1.90
2017-12-15T02:56:18.806Z,1.90
2017-12-15T02:58:46.222Z,1.90
2017-12-15T03:01:13.670Z,1.90
2017-12-15T03:03:41.142Z,1.90
2017-12-15T03:06:08.601Z,1.90
2017-12-15T03:08:36.046Z,2.00
2017-12-15T03:11:03.506Z,2.00
2017-12-15T03:13:30.984Z,2.00
2017-12-15T03:15:58.434Z,2.00
2017-12-15T03:18:25.899Z,2.00
2017-12-15T03:20:53.354Z,2.00
2017-12-15T03:23:20.803Z,2.00
2017-12-15T03:25:48.260Z,2.00
2017-12-15T03:28:16.468Z,1.90
2017-12-15T03:30:43.922Z,1.90
2017-12-15T03:33:11.368Z,1.90
2017-12-15T03:35:39.601Z,1.80
2017-12-15T03:38:07.042Z,1.80
2017-12-15T03:40:34.497Z,1.90
2017-12-15T03:43:01.955Z,1.90
2017-12-15T03:45:29.411Z,1.90
2017-12-15T03:47:56.911Z,1.90
2017-12-15T03:50:24.356Z,1.90
2017-12-15T03:52:51.826Z,1.90
2017-12-15T03:55:19.271Z,1.90
2017-12-15T03:57:46.740Z,1.90
2017-12-15T04:00:14.218Z,1.90
2017-12-15T04:02:41.690Z,2.00
2017-12-15T04:05:09.139Z,2.00
2017-12-15T04:07:36.601Z,2.00
2017-12-15T04:10:04.040Z,2.00
2017-12-15T04:12:31.476Z,2.00
2017-12-15T04:14:59.698Z,2.10
2017-12-15T04:17:27.143Z,2.10
2017-12-15T04:19:54.615Z,2.10
2017-12-15T04:22:22.055Z,2.10
2017-12-15T04:24:49.504Z,2.10
2017-12-15T04:27:17.728Z,2.20
2017-12-15T04:29:45.174Z,2.10
2017-12-15T04:32:12.619Z,2.20
2017-12-15T04:34:40.063Z,2.10
2017-12-15T04:37:07.517Z,2.10
2017-12-15T04:39:34.966Z,2.10
2017-12-15T04:42:02.454Z,2.10
2017-12-15T04:44:30.668Z,2.10
2017-12-15T04:46:58.137Z,2.10
2017-12-15T04:49:25.591Z,2.20
2017-12-15T04:51:53.063Z,2.10
2017-12-15T04:54:20.520Z,2.10
2017-12-15T04:56:47.968Z,2.10
2017-12-15T04:59:15.421Z,2.10
2017-12-15T05:01:43.683Z,2.20
2017-12-15T05:04:11.070Z,2.10
2017-12-15T05:06:38.523Z,2.20
2017-12-15T05:09:06.732Z,2.20
2017-12-15T05:11:34.195Z,2.20
2017-12-15T05:14:01.656Z,2.20
2017-12-15T05:16:29.115Z,2.20
2017-12-15T05:18:56.582Z,2.20
2017-12-15T05:21:24.015Z,2.20
2017-12-15T05:23:52.227Z,2.20
2017-12-15T05:26:19.685Z,2.20
2017-12-15T05:28:47.139Z,2.20
2017-12-15T05:31:14.573Z,2.20
2017-12-15T05:33:42.031Z,2.20
2017-12-15T05:36:09.484Z,2.20
2017-12-15T05:38:36.926Z,2.20
2017-12-15T05:41:04.391Z,2.30
2017-12-15T05:43:31.847Z,2.30
2017-12-15T05:45:59.295Z,2.30
2017-12-15T05:48:26.750Z,2.30
2017-12-15T05:50:54.246Z,2.30
2017-12-15T05:53:22.412Z,2.30
2017-12-15T05:55:49.851Z,2.30
2017-12-15T05:58:17.295Z,2.30
2017-12-15T06:00:45.514Z,2.40
2017-12-15T06:03:12.955Z,2.30
2017-12-15T06:05:40.434Z,2.40
2017-12-15T06:08:07.890Z,2.40
2017-12-15T06:10:35.353Z,2.40
2017-12-15T06:13:03.424Z,2.50
2017-12-15T06:15:30.916Z,2.50
2017-12-15T06:17:58.368Z,2.50
2017-12-15T06:20:25.827Z,2.40
2017-12-15T06:22:53.289Z,2.50
2017-12-15T06:25:20.730Z,2.50
2017-12-15T06:27:48.178Z,2.40
2017-12-15T06:30:15.650Z,2.50
2017-12-15T06:32:43.098Z,2.40
2017-12-15T06:35:11.334Z,2.40
2017-12-15T06:37:38.778Z,2.40
2017-12-15T06:40:06.223Z,2.50
2017-12-15T06:42:33.681Z,2.50
2017-12-15T06:45:01.296Z,2.50
2017-12-15T06:47:28.756Z,2.50
2017-12-15T06:49:56.199Z,2.50
2017-12-15T06:52:23.640Z,2.50
2017-12-15T06:54:51.071Z,2.60
2017-12-15T06:57:19.309Z,2.60
2017-12-15T06:59:46.767Z,2.60
2017-12-15T07:02:14.969Z,2.60
2017-12-15T07:04:42.532Z,2.60
2017-12-15T07:07:09.986Z,2.60
2017-12-15T07:09:37.431Z,2.70
2017-12-15T07:12:04.902Z,2.70
2017-12-15T07:14:32.345Z,2.60
2017-12-15T07:16:59.776Z,2.60
2017-12-15T07:19:27.995Z,2.70
2017-12-15T07:21:55.738Z,2.60
2017-12-15T07:24:23.947Z,2.70
2017-12-15T07:26:51.407Z,2.60
2017-12-15T07:29:18.860Z,2.70
2017-12-15T07:31:46.304Z,2.70
2017-12-15T07:34:14.508Z,2.80
2017-12-15T07:36:42.734Z,2.80
2017-12-15T07:39:10.181Z,2.80
2017-12-15T07:41:37.614Z,2.80
2017-12-15T07:44:05.083Z,2.80
2017-12-15T07:46:32.514Z,2.80
2017-12-15T07:48:59.985Z,2.80
2017-12-15T07:51:27.448Z,2.80
2017-12-15T07:53:54.894Z,2.80
2017-12-15T07:56:23.133Z,2.80
2017-12-15T07:58:50.571Z,2.80
2017-12-15T08:01:18.015Z,2.80
2017-12-15T08:03:45.467Z,2.80
2017-12-15T08:06:13.684Z,2.80
2017-12-15T08:08:41.130Z,2.80
2017-12-15T08:11:08.564Z,2.90
2017-12-15T08:13:36.777Z,2.90
2017-12-15T08:16:04.216Z,2.90
2017-12-15T08:18:31.699Z,2.90
2017-12-15T08:20:59.132Z,2.90
2017-12-15T08:23:27.356Z,3.00
2017-12-15T08:25:54.820Z,2.90
2017-12-15T08:28:22.279Z,3.00
2017-12-15T08:30:49.710Z,3.00
2017-12-15T08:33:17.155Z,3.00
2017-12-15T08:35:45.388Z,3.00
2017-12-15T08:38:12.840Z,3.00
2017-12-15T08:40:40.291Z,3.00
2017-12-15T08:43:07.751Z,3.00
2017-12-15T08:45:35.203Z,3.00
2017-12-15T08:48:02.654Z,3.00
2017-12-15T08:50:30.888Z,3.00
2017-12-15T08:52:58.345Z,3.10
2017-12-15T08:55:25.796Z,3.10
2017-12-15T08:57:53.243Z,3.10
2017-12-15T09:00:20.709Z,3.10
2017-12-15T09:02:48.156Z,3.10
2017-12-15T09:05:16.379Z,3.10
2017-12-15T09:07:43.839Z,3.10
2017-12-15T09:10:11.297Z,3.10
2017-12-15T09:12:38.739Z,3.10
2017-12-15T09:15:06.200Z,3.10
2017-12-15T09:17:33.643Z,3.10
2017-12-15T09:20:01.859Z,3.10
2017-12-15T09:22:29.324Z,3.10
2017-12-15T09:24:56.771Z,3.10
2017-12-15T09:27:24.216Z,3.10
2017-12-15T09:29:51.660Z,3.10
2017-12-15T09:32:19.879Z,3.10
2017-12-15T09:34:47.343Z,3.10
2017-12-15T09:37:14.792Z,3.10
2017-12-15T09:39:42.244Z,3.20
2017-12-15T09:42:09.685Z,3.30
2017-12-15T09:44:37.138Z,3.30
2017-12-15T09:47:04.590Z,3.30
2017-12-15T09:49:32.053Z,3.30
2017-12-15T09:51:59.506Z,3.30
2017-12-15T09:54:26.938Z,3.30
2017-12-15T09:56:54.387Z,3.30
2017-12-15T09:59:21.825Z,3.30
2017-12-15T10:01:50.045Z,3.30
2017-12-15T10:04:17.486Z,3.30
2017-12-15T10:06:45.715Z,3.30
2017-12-15T10:09:13.176Z,3.30
2017-12-15T10:11:40.629Z,3.40
2017-12-15T10:14:08.092Z,3.40
2017-12-15T10:16:35.554Z,3.40
2017-12-15T10:19:03.980Z,3.40
2017-12-15T10:21:31.424Z,3.30
2017-12-15T10:23:58.870Z,3.40
2017-12-15T10:26:26.325Z,3.40
2017-12-15T10:28:53.770Z,3.30
2017-12-15T10:31:21.199Z,3.40
2017-12-15T10:33:49.452Z,3.40
2017-12-15T10:36:16.919Z,3.40
2017-12-15T10:38:44.352Z,3.50
2017-12-15T10:41:11.810Z,3.50
2017-12-15T10:43:39.250Z,3.50
2017-12-15T10:46:06.707Z,3.50
2017-12-15T10:48:34.927Z,3.50
2017-12-15T10:51:02.384Z,3.50
2017-12-15T10:53:29.837Z,3.50
2017-12-15T10:55:57.315Z,3.50
2017-12-15T10:58:24.757Z,3.60
2017-12-15T11:00:52.204Z,3.50
2017-12-15T11:03:19.656Z,3.60
2017-12-15T11:05:47.866Z,3.60
2017-12-15T11:08:15.326Z,3.60
2017-12-15T11:10:42.770Z,3.50
2017-12-15T11:13:10.249Z,3.60
2017-12-15T11:15:37.696Z,3.60
2017-12-15T11:18:05.183Z,3.60
2017-12-15T11:20:32.645Z,3.70
2017-12-15T11:23:00.086Z,3.70
2017-12-15T11:25:27.542Z,3.70
2017-12-15T11:27:55.735Z,3.70
2017-12-15T11:30:23.199Z,3.70
2017-12-15T11:32:50.638Z,3.80
2017-12-15T11:35:18.872Z,3.60
2017-12-15T11:37:46.323Z,3.60
2017-12-15T11:40:13.771Z,3.70
2017-12-15T11:42:41.230Z,3.80
2017-12-15T11:45:08.684Z,3.80
2017-12-15T11:47:36.119Z,3.80
2017-12-15T11:50:03.568Z,3.80
2017-12-15T11:52:31.013Z,3.80
2017-12-15T11:54:58.459Z,3.80
2017-12-15T11:57:25.920Z,3.80
2017-12-15T11:59:53.376Z,3.80
2017-12-15T12:02:20.836Z,3.80
2017-12-15T12:04:48.296Z,3.80
2017-12-15T12:07:15.731Z,3.80
2017-12-15T12:09:43.958Z,3.80
2017-12-15T12:12:11.407Z,3.80
2017-12-15T12:14:38.859Z,3.80
2017-12-15T12:17:06.304Z,3.80
2017-12-15T12:19:34.523Z,3.80
2017-12-15T12:22:01.978Z,3.80
2017-12-15T12:24:29.435Z,3.80
2017-12-15T12:26:56.893Z,3.80
2017-12-15T12:29:24.329Z,3.90
2017-12-15T12:31:52.574Z,3.90
2017-12-15T12:34:20.030Z,3.90
2017-12-15T12:36:47.464Z,3.90
2017-12-15T12:39:14.902Z,3.90
2017-12-15T12:41:42.368Z,3.90
2017-12-15T12:44:10.581Z,3.90
2017-12-15T12:46:38.024Z,3.90
2017-12-15T12:49:05.478Z,3.90
2017-12-15T12:51:32.952Z,3.90
2017-12-15T12:54:00.401Z,3.90
2017-12-15T12:56:27.846Z,3.90
2017-12-15T12:58:56.066Z,3.90
2017-12-15T13:01:23.516Z,3.90
2017-12-15T13:03:50.958Z,4.00
2017-12-15T13:06:19.177Z,3.90
2017-12-15T13:08:46.622Z,3.90
2017-12-15T13:11:14.084Z,3.90
2017-12-15T13:13:41.515Z,4.00
2017-12-15T13:16:09.749Z,3.90
2017-12-15T13:18:37.208Z,3.90
2017-12-15T13:21:04.676Z,3.90
2017-12-15T13:23:32.143Z,4.00
2017-12-15T13:25:59.594Z,4.00
2017-12-15T13:28:27.048Z,4.00
2017-12-15T13:30:54.505Z,4.10
2017-12-15T13:33:21.950Z,4.20
2017-12-15T13:35:49.428Z,4.10
2017-12-15T13:38:16.894Z,4.20
2017-12-15T13:40:44.331Z,4.20
2017-12-15T13:43:12.576Z,4.20
2017-12-15T13:45:40.034Z,4.20
2017-12-15T13:48:07.492Z,4.20
2017-12-15T13:50:34.944Z,4.20
2017-12-15T13:53:02.400Z,4.30
2017-12-15T13:55:29.880Z,4.10
2017-12-15T13:57:57.344Z,4.10
2017-12-15T14:00:24.811Z,4.10
2017-12-15T14:02:52.270Z,4.20
2017-12-15T14:05:19.743Z,4.20
2017-12-15T14:07:47.185Z,4.20
2017-12-15T14:10:14.653Z,4.20
2017-12-15T14:12:42.146Z,4.20
2017-12-15T14:15:09.563Z,4.20
2017-12-15T14:17:37.030Z,4.20
2017-12-15T14:20:04.474Z,4.20
2017-12-15T14:22:31.931Z,4.20
2017-12-15T14:24:59.391Z,4.20
2017-12-15T14:27:26.857Z,4.20
2017-12-15T14:29:54.312Z,4.20
2017-12-15T14:32:21.764Z,4.10
2017-12-15T14:34:49.979Z,4.00
2017-12-15T14:37:17.448Z,4.00
2017-12-15T14:39:44.915Z,3.90
2017-12-15T14:42:12.387Z,3.90
2017-12-15T14:44:39.842Z,3.90
2017-12-15T14:47:07.301Z,3.90
2017-12-15T14:49:34.755Z,3.90
2017-12-15T14:52:02.227Z,3.80
2017-12-15T14:54:29.709Z,3.80
2017-12-15T14:56:57.173Z,3.80
2017-12-15T14:59:24.648Z,3.80
2017-12-15T15:01:52.123Z,3.80
2017-12-15T15:04:20.350Z,3.80
2017-12-15T15:06:47.802Z,3.80
2017-12-15T15:09:15.277Z,3.80
2017-12-15T15:11:42.739Z,3.80
2017-12-15T15:14:10.392Z,3.90
2017-12-15T15:16:37.900Z,3.90
2017-12-15T15:19:06.625Z,3.90
2017-12-15T15:21:34.181Z,3.90
2017-12-15T15:24:01.675Z,3.90
2017-12-15T15:26:29.203Z,3.90
2017-12-15T15:28:56.648Z,3.90
2017-12-15T15:31:24.102Z,3.90
2017-12-15T15:33:51.543Z,3.90
2017-12-15T15:36:19.019Z,3.90
2017-12-15T15:38:46.494Z,3.90
2017-12-15T15:41:13.949Z,3.90
2017-12-15T15:43:42.159Z,3.90
2017-12-15T15:46:09.607Z,3.90
2017-12-15T15:48:37.071Z,3.90
2017-12-15T15:51:04.528Z,3.90
2017-12-15T15:53:31.971Z,3.80
2017-12-15T15:55:59.422Z,3.80
2017-12-15T15:58:26.913Z,3.80
2017-12-15T16:00:54.375Z,3.80
2017-12-15T16:03:21.841Z,3.80
2017-12-15T16:05:49.288Z,3.70
2017-12-15T16:08:16.735Z,3.70
2017-12-15T16:10:44.199Z,3.70
2017-12-15T16:13:11.672Z,3.70
2017-12-15T16:15:39.145Z,3.60
2017-12-15T16:18:06.613Z,3.60
2017-12-15T16:20:34.073Z,3.50
2017-12-15T16:23:01.534Z,3.50
2017-12-15T16:25:28.987Z,3.50
2017-12-15T16:27:57.351Z,3.50
2017-12-15T16:30:24.808Z,3.50
2017-12-15T16:32:52.272Z,3.50
2017-12-15T16:35:19.740Z,3.40
2017-12-15T16:37:47.200Z,3.50
2017-12-15T16:40:14.663Z,3.40
2017-12-15T16:42:42.137Z,3.50
2017-12-15T16:45:09.589Z,3.50
2017-12-15T16:47:37.041Z,3.50
2017-12-15T16:50:04.513Z,3.50
2017-12-15T16:52:31.951Z,3.50
2017-12-15T16:55:00.179Z,3.50
2017-12-15T16:57:27.641Z,3.50
2017-12-15T16:59:55.095Z,3.50
2017-12-15T17:02:22.565Z,3.60
2017-12-15T17:04:49.966Z,3.60
2017-12-15T17:07:18.215Z,4.00
2017-12-15T17:09:45.680Z,4.00
2017-12-15T17:12:13.370Z,4.10
2017-12-15T17:14:40.824Z,4.10
2017-12-15T17:17:08.267Z,4.10
2017-12-15T17:19:35.735Z,4.00
2017-12-15T17:22:03.186Z,3.90
2017-12-15T17:24:30.640Z,3.80
2017-12-15T17:26:58.089Z,3.80
2017-12-15T17:29:25.552Z,3.80
2017-12-15T17:31:53.019Z,3.70
2017-12-15T17:34:20.472Z,3.70
2017-12-15T17:36:48.461Z,3.60
2017-12-15T17:39:15.916Z,3.60
2017-12-15T17:41:43.354Z,3.60
2017-12-15T17:44:11.586Z,3.60
2017-12-15T17:46:39.058Z,3.60
2017-12-15T17:49:06.551Z,3.60
2017-12-15T17:51:34.774Z,3.60
2017-12-15T17:54:02.230Z,3.60
2017-12-15T17:56:29.722Z,3.60
2017-12-15T17:58:57.168Z,3.60
2017-12-15T18:01:24.644Z,3.60
2017-12-15T18:03:52.108Z,3.60
2017-12-15T18:06:19.552Z,3.60
2017-12-15T18:08:47.002Z,3.60
2017-12-15T18:11:14.475Z,3.60
2017-12-15T18:13:41.940Z,3.50
2017-12-15T18:16:09.420Z,3.50
2017-12-15T18:18:36.864Z,3.50
2017-12-15T18:21:04.324Z,3.50
2017-12-15T18:23:31.773Z,3.50
2017-12-15T18:25:59.221Z,3.50
2017-12-15T18:28:27.446Z,3.70
2017-12-15T18:30:54.882Z,3.70
2017-12-15T18:33:22.353Z,3.70
2017-12-15T18:35:49.814Z,3.60
2017-12-15T18:38:17.282Z,3.60
2017-12-15T18:40:44.723Z,3.50
2017-12-15T18:43:12.172Z,3.60
2017-12-15T18:45:40.403Z,3.50
2017-12-15T18:48:07.881Z,3.50
2017-12-15T18:50:35.346Z,3.60
2017-12-15T18:53:02.817Z,3.50
2017-12-15T18:55:30.271Z,3.50
2017-12-15T18:57:57.727Z,3.50
2017-12-15T19:00:25.175Z,3.40
2017-12-15T19:02:52.633Z,3.40
2017-12-15T19:05:20.086Z,3.40
2017-12-15T19:07:47.714Z,3.40
2017-12-15T19:10:15.925Z,3.40
2017-12-15T19:12:43.374Z,3.40
2017-12-15T19:15:10.843Z,3.30
2017-12-15T19:17:38.325Z,3.30
2017-12-15T19:20:05.792Z,3.30
2017-12-15T19:22:33.259Z,3.10
2017-12-15T19:25:00.722Z,3.20
2017-12-15T19:27:28.195Z,3.20
2017-12-15T19:29:55.657Z,3.20
2017-12-15T19:32:23.183Z,3.20
2017-12-15T19:34:50.679Z,3.20
2017-12-15T19:37:18.135Z,3.20
2017-12-15T19:39:45.604Z,3.20
2017-12-15T19:42:13.061Z,3.20
2017-12-15T19:44:40.514Z,3.10
2017-12-15T19:47:07.976Z,3.00
2017-12-15T19:49:35.438Z,3.00
2017-12-15T19:52:02.910Z,3.00
2017-12-15T19:54:30.356Z,3.10
2017-12-15T19:56:57.815Z,3.00
2017-12-15T19:59:25.280Z,3.00
2017-12-15T20:01:52.755Z,3.00
2017-12-15T20:04:20.223Z,2.80
2017-12-15T20:06:47.691Z,2.80
2017-12-15T20:09:15.177Z,2.90
2017-12-15T20:11:42.631Z,2.90
2017-12-15T20:14:10.846Z,2.90
2017-12-15T20:16:39.076Z,2.80
2017-12-15T20:19:06.796Z,2.80
2017-12-15T20:21:34.249Z,2.70
2017-12-15T20:24:01.696Z,2.60
2017-12-15T20:26:29.160Z,2.70
2017-12-15T20:28:56.620Z,2.60
2017-12-15T20:31:24.095Z,2.60
2017-12-15T20:33:51.554Z,2.60
2017-12-15T20:36:19.036Z,2.60
2017-12-15T20:38:46.470Z,2.60
2017-12-15T20:41:13.949Z,2.60
2017-12-15T20:43:41.415Z,2.60
2017-12-15T20:46:08.886Z,2.60
2017-12-15T20:48:37.112Z,2.40
2017-12-15T20:51:04.593Z,2.40
2017-12-15T20:53:32.033Z,2.50
2017-12-15T20:55:59.498Z,2.60
2017-12-15T20:58:26.948Z,2.40
2017-12-15T21:00:54.407Z,2.40
2017-12-15T21:03:21.874Z,2.40
2017-12-15T21:05:49.336Z,2.30
2017-12-15T21:08:16.797Z,2.30
2017-12-15T21:10:44.268Z,2.20
2017-12-15T21:13:11.727Z,2.10
2017-12-15T21:15:39.188Z,2.20
2017-12-15T21:18:07.501Z,2.40
2017-12-15T21:20:35.395Z,2.40
2017-12-15T21:23:02.861Z,2.40
2017-12-15T21:25:30.310Z,2.30
2017-12-15T21:27:57.781Z,2.30
2017-12-15T21:30:25.238Z,2.00
2017-12-15T21:32:52.680Z,2.20
2017-12-15T21:35:20.140Z,2.30
2017-12-15T21:37:47.647Z,2.20
2017-12-15T21:40:15.108Z,2.20
2017-12-15T21:42:42.579Z,2.30
2017-12-15T21:45:10.808Z,2.30
2017-12-15T21:47:39.051Z,2.20
2017-12-15T21:50:06.551Z,2.20
2017-12-15T21:52:34.011Z,2.20
2017-12-15T21:55:01.467Z,2.10
2017-12-15T21:57:28.950Z,2.10
2017-12-15T21:59:56.405Z,2.20
2017-12-15T22:02:23.860Z,2.00
2017-12-15T22:04:51.341Z,2.10
2017-12-15T22:07:19.572Z,2.10
2017-12-15T22:09:47.150Z,2.10
2017-12-15T22:12:14.611Z,2.10
2017-12-15T22:14:42.074Z,2.10
2017-12-15T22:17:09.543Z,2.10
2017-12-15T22:19:37.008Z,2.00
2017-12-15T22:22:04.468Z,2.10
2017-12-15T22:24:31.985Z,2.10
2017-12-15T22:26:59.447Z,2.00
2017-12-15T22:29:26.924Z,2.10
2017-12-15T22:31:55.152Z,1.90
2017-12-15T22:34:26.648Z,1.90
2017-12-15T22:36:58.921Z,2.00
2017-12-15T22:39:28.414Z,2.00
2017-12-15T22:41:59.092Z,2.10
2017-12-15T22:44:31.394Z,2.00
2017-12-15T22:46:59.731Z,2.00
2017-12-15T22:49:33.564Z,2.00
2017-12-15T22:52:07.329Z,2.10
2017-12-15T22:54:40.976Z,2.10
2017-12-15T22:57:08.417Z,2.10
2017-12-15T22:59:36.649Z,2.10
2017-12-15T23:02:04.105Z,2.10
2017-12-15T23:04:31.558Z,2.10
2017-12-15T23:06:59.020Z,2.10
2017-12-15T23:09:26.478Z,2.10
2017-12-15T23:11:53.948Z,2.10
2017-12-15T23:14:21.399Z,2.00
2017-12-15T23:16:48.859Z,2.10
2017-12-15T23:19:16.321Z,2.10
2017-12-15T23:21:44.093Z,2.10
2017-12-15T23:24:11.544Z,2.10
2017-12-15T23:26:39.005Z,2.10
2017-12-15T23:29:07.229Z,1.90
2017-12-15T23:31:34.677Z,1.90
2017-12-15T23:34:02.158Z,2.00
2017-12-15T23:36:29.612Z,2.00
2017-12-15T23:38:57.846Z,2.00
2017-12-15T23:41:26.088Z,1.90
2017-12-15T23:43:53.544Z,1.90
2017-12-15T23:46:20.983Z,1.90
2017-12-15T23:48:48.440Z,2.00
2017-12-15T23:51:15.886Z,2.00
2017-12-15T23:53:43.351Z,2.10
2017-12-15T23:56:22.902Z,2.00
2017-12-15T23:58:50.389Z,2.00
